Hdms Esbern Snare — OUFB — position and weather

sailwx.info

Track history (hours):
 
Tides and Currents Weather Stations Pressure Air Temp Water Temp Dewpoint Dewpoint Depression Visibility Wind Speed Wind Dir Waves Ship Positions

Hdms Esbern Snare

Last reported at 2016-Sep-23 06:32 UTC. Time now 2016-Sep-30 11:45 UTC.
Position N 55°59' E 011°22'.

Length 137 m.

Type: Military. MMSI: 36699999.

Date/timePositionNaut miles runAvg speedWind from/ knotsBaromVisibWave heightAir tempDewpointWater temp
2016-Sep-23 06:32N 55°59' E 011°22'9 2.4
2016-Sep-23 02:33N 56°04' E 011°08'4013.2
2016-Sep-22 23:34N 55°25' E 010°60'4314.3
2016-Sep-22 20:34N 54°42' E 010°53'39 2.4
2016-Sep-22 04:20N 54°03' E 010°48'0 0.0
2016-Sep-22 03:14N 54°03' E 010°48'17 0.4
2016-Sep-20 08:15N 54°13' E 011°12'5 7.8
2016-Sep-20 07:33N 54°08' E 011°08'10 9.3
2016-Sep-20 06:28N 54°02' E 010°54'16 0.5
2016-Sep-18 19:19N 54°12' E 011°16'35 9.4
2016-Sep-18 15:33N 54°31' E 010°25'1110.9
2016-Sep-18 14:34N 54°24' E 010°12'3 0.7
2016-Sep-18 10:32N 54°21' E 010°09'0 0.0
2016-Sep-18 09:32N 54°21' E 010°09'0 0.0
2016-Sep-18 02:29N 54°21' E 010°09'0 0.0
2016-Sep-18 01:32N 54°21' E 010°09'0 0.0
2016-Sep-18 00:32N 54°21' E 010°09'0 0.0
2016-Sep-17 22:32N 54°21' E 010°09'0 0.0
2016-Sep-17 21:32N 54°21' E 010°09'0 0.0
2016-Sep-17 20:31N 54°21' E 010°09'0 0.0
2016-Sep-17 19:13N 54°21' E 010°09'0 0.0
2016-Sep-17 13:31N 54°21' E 010°09'0 0.0
2016-Sep-17 12:31N 54°21' E 010°09'0 0.0
2016-Sep-17 10:31N 54°21' E 010°09'0 0.0
2016-Sep-17 09:31N 54°21' E 010°09'0 0.0
2016-Sep-17 08:31N 54°21' E 010°09'0 0.0
2016-Sep-17 07:31N 54°21' E 010°09'0 0.0
2016-Sep-17 05:31N 54°21' E 010°09'0 0.0
2016-Sep-17 04:28N 54°21' E 010°09'0 0.0
2016-Sep-17 00:28N 54°21' E 010°09'0 0.0
2016-Sep-16 17:31N 54°21' E 010°09'0 0.0
2016-Sep-16 15:31N 54°21' E 010°09'0 0.0
2016-Sep-16 12:34N 54°21' E 010°09'0 0.0
2016-Sep-16 09:33N 54°21' E 010°09'0 0.0
2016-Sep-16 07:33N 54°21' E 010°09'0 0.0
2016-Sep-16 03:33N 54°21' E 010°09'0 0.0
2016-Sep-16 02:33N 54°21' E 010°09'0 0.0
2016-Sep-16 00:33N 54°21' E 010°09'0 0.0
2016-Sep-15 22:33N 54°21' E 010°09'1 1.3
2016-Sep-15 21:33N 54°22' E 010°11'10 9.6
2016-Sep-15 20:33N 54°30' E 010°19'20 9.9
2016-Sep-15 18:33N 54°35' E 010°52'32 5.3
2016-Sep-15 12:28N 54°03' E 010°48'0 0.1
2016-Sep-15 11:29N 54°03' E 010°48'0 0.0
2016-Sep-15 04:31N 54°03' E 010°48'0 0.0
2016-Sep-15 03:31N 54°03' E 010°48'0 0.0
2016-Sep-15 01:31N 54°03' E 010°48'0 0.0
2016-Sep-14 22:31N 54°03' E 010°48'0 0.0
2016-Sep-14 21:22N 54°03' E 010°48'0 0.0
2016-Sep-14 17:31N 54°03' E 010°48'0 0.0
2016-Sep-14 16:31N 54°03' E 010°48'1 0.3
2016-Sep-14 13:29N 54°03' E 010°49'3 1.1
2016-Sep-14 10:33N 54°02' E 010°55'4 3.7
2016-Sep-14 09:33N 54°03' E 010°48'0 0.2
2016-Sep-14 08:34N 54°03' E 010°49'0 0.2
2016-Sep-14 07:33N 54°03' E 010°49'1 0.6
2016-Sep-14 06:33N 54°04' E 010°49'1 0.2
2016-Sep-14 03:30N 54°03' E 010°48'0 0.0
2016-Sep-13 22:33N 54°03' E 010°48'0 0.0
2016-Sep-13 20:27N 54°03' E 010°48'0 0.0
2016-Sep-13 18:12N 54°03' E 010°48'0 0.0
2016-Sep-13 17:21N 54°03' E 010°48'0 0.0
2016-Sep-13 16:33N 54°03' E 010°48'9 1.7
2016-Sep-13 11:33N 54°05' E 011°02'8 4.2
2016-Sep-13 09:33N 54°03' E 010°49'1 0.3
2016-Sep-13 07:33N 54°03' E 010°48'0 0.0
2016-Sep-13 06:33N 54°03' E 010°48'  
Track history (hours):
 
Tides and Currents Weather Stations Pressure Air Temp Water Temp Dewpoint Dewpoint Depression Visibility Wind Speed Wind Dir Waves Ship Positions

Hdms Esbern Snare

Last reported at 2016-Sep-23 06:32 UTC. Time now 2016-Sep-30 11:45 UTC.
Position N 55°59' E 011°22'.

Length 137 m.

Type: Military. MMSI: 36699999.

Date/timePositionNaut miles runAvg speedWind from/ knotsBaromVisibWave heightAir tempDewpointWater temp
2016-Sep-23 06:32N 55°59' E 011°22'9 2.4
2016-Sep-23 02:33N 56°04' E 011°08'4013.2
2016-Sep-22 23:34N 55°25' E 010°60'4314.3
2016-Sep-22 20:34N 54°42' E 010°53'39 2.4
2016-Sep-22 04:20N 54°03' E 010°48'0 0.0
2016-Sep-22 03:14N 54°03' E 010°48'17 0.4
2016-Sep-20 08:15N 54°13' E 011°12'5 7.8
2016-Sep-20 07:33N 54°08' E 011°08'10 9.3
2016-Sep-20 06:28N 54°02' E 010°54'16 0.5
2016-Sep-18 19:19N 54°12' E 011°16'35 9.4
2016-Sep-18 15:33N 54°31' E 010°25'1110.9
2016-Sep-18 14:34N 54°24' E 010°12'3 0.7
2016-Sep-18 10:32N 54°21' E 010°09'0 0.0
2016-Sep-18 09:32N 54°21' E 010°09'0 0.0
2016-Sep-18 02:29N 54°21' E 010°09'0 0.0
2016-Sep-18 01:32N 54°21' E 010°09'0 0.0
2016-Sep-18 00:32N 54°21' E 010°09'0 0.0
2016-Sep-17 22:32N 54°21' E 010°09'0 0.0
2016-Sep-17 21:32N 54°21' E 010°09'0 0.0
2016-Sep-17 20:31N 54°21' E 010°09'0 0.0
2016-Sep-17 19:13N 54°21' E 010°09'0 0.0
2016-Sep-17 13:31N 54°21' E 010°09'0 0.0
2016-Sep-17 12:31N 54°21' E 010°09'0 0.0
2016-Sep-17 10:31N 54°21' E 010°09'0 0.0
2016-Sep-17 09:31N 54°21' E 010°09'0 0.0
2016-Sep-17 08:31N 54°21' E 010°09'0 0.0
2016-Sep-17 07:31N 54°21' E 010°09'0 0.0
2016-Sep-17 05:31N 54°21' E 010°09'0 0.0
2016-Sep-17 04:28N 54°21' E 010°09'0 0.0
2016-Sep-17 00:28N 54°21' E 010°09'0 0.0
2016-Sep-16 17:31N 54°21' E 010°09'0 0.0
2016-Sep-16 15:31N 54°21' E 010°09'0 0.0
2016-Sep-16 12:34N 54°21' E 010°09'0 0.0
2016-Sep-16 09:33N 54°21' E 010°09'0 0.0
2016-Sep-16 07:33N 54°21' E 010°09'0 0.0
2016-Sep-16 03:33N 54°21' E 010°09'0 0.0
2016-Sep-16 02:33N 54°21' E 010°09'0 0.0
2016-Sep-16 00:33N 54°21' E 010°09'0 0.0
2016-Sep-15 22:33N 54°21' E 010°09'1 1.3
2016-Sep-15 21:33N 54°22' E 010°11'10 9.6
2016-Sep-15 20:33N 54°30' E 010°19'20 9.9
2016-Sep-15 18:33N 54°35' E 010°52'32 5.3
2016-Sep-15 12:28N 54°03' E 010°48'0 0.1
2016-Sep-15 11:29N 54°03' E 010°48'0 0.0
2016-Sep-15 04:31N 54°03' E 010°48'0 0.0
2016-Sep-15 03:31N 54°03' E 010°48'0 0.0
2016-Sep-15 01:31N 54°03' E 010°48'0 0.0
2016-Sep-14 22:31N 54°03' E 010°48'0 0.0
2016-Sep-14 21:22N 54°03' E 010°48'0 0.0
2016-Sep-14 17:31N 54°03' E 010°48'0 0.0
2016-Sep-14 16:31N 54°03' E 010°48'1 0.3
2016-Sep-14 13:29N 54°03' E 010°49'3 1.1
2016-Sep-14 10:33N 54°02' E 010°55'4 3.7
2016-Sep-14 09:33N 54°03' E 010°48'0 0.2
2016-Sep-14 08:34N 54°03' E 010°49'0 0.2
2016-Sep-14 07:33N 54°03' E 010°49'1 0.6
2016-Sep-14 06:33N 54°04' E 010°49'1 0.2
2016-Sep-14 03:30N 54°03' E 010°48'0 0.0
2016-Sep-13 22:33N 54°03' E 010°48'0 0.0
2016-Sep-13 20:27N 54°03' E 010°48'0 0.0
2016-Sep-13 18:12N 54°03' E 010°48'0 0.0
2016-Sep-13 17:21N 54°03' E 010°48'0 0.0
2016-Sep-13 16:33N 54°03' E 010°48'9 1.7
2016-Sep-13 11:33N 54°05' E 011°02'8 4.2
2016-Sep-13 09:33N 54°03' E 010°49'1 0.3
2016-Sep-13 07:33N 54°03' E 010°48'0 0.0
2016-Sep-13 06:33N 54°03' E 010°48'  

Dump ship's entire track history